Latest Weather Observations for Ngayawili (Elcho Island)

IDD60801

Issued at 1:21 pm CST Thursday 18 July 2024 (issued every 10 minutes, with the page automatically refreshed every 10 minutes)

About weather observations | Map of weather stations | Latest weather observations for NT | Other Formats
Station Details ID: 014517 Name: NGAYAWILI Lat: -12.00 Lon: 135.57 Height: 8.1 m
Data from the previous 72 hours. | See also: Recent months at Ngayawili (Elcho Island)
Date/Time
CST
Temp
°C
App
Temp
°C
Dew
Point
°C
Rel
Hum
%
Delta-T
°C
Wind Press
QNH
hPa
Press
MSL
hPa
Rain since
9am
mm
Dir  Spd
km/h
Gust
km/h
Spd
kts
Gust
kts
18/01:00pm 26.0 22.2 12.5 43 7.8 SE 24 35 13 19 1016.8 1016.8 0.0
18/12:30pm 25.6 21.9 12.8 45 7.4 SE 24 39 13 21 1017.2 1017.2 0.0
18/12:00pm 25.3 21.7 12.9 46 7.2 SE 24 35 13 19 1017.6 1017.6 0.0
18/11:30am 24.6 20.7 12.2 46 7.1 SE 24 39 13 21 1018.0 1018.0 0.0
18/11:00am 24.6 21.1 12.2 46 7.1 ESE 22 35 12 19 1018.6 1018.6 0.0
18/10:30am 23.8 19.7 12.8 50 6.3 SE 26 39 14 21 1018.8 1018.8 0.0
18/10:00am 23.2 20.0 13.1 53 5.8 SSE 22 37 12 20 1018.9 1018.9 0.0
18/09:30am 21.8 18.9 12.9 57 5.1 SSE 20 28 11 15 1019.1 1019.1 0.0
18/09:00am 20.4 18.0 12.6 61 4.4 SSE 17 24 9 13 1019.6 1019.6 0.0
18/08:30am 19.2 17.6 12.7 66 3.6 S 13 17 7 9 1019.4 1019.4 0.0
18/08:00am 17.0 16.6 13.1 78 2.2 S 7 11 4 6 1019.4 1019.4 0.0
18/07:30am 13.9 13.4 12.8 93 0.6 S 7 9 4 5 1019.1 1019.1 0.0
18/07:00am 13.3 12.7 12.4 94 0.5 S 7 9 4 5 1018.8 1018.8 0.0
18/06:30am 13.4 12.5 12.6 95 0.4 S 9 11 5 6 1018.5 1018.5 0.0
18/06:00am 13.6 12.7 12.5 93 0.6 S 9 9 5 5 1018.3 1018.3 0.0
18/05:30am 13.8 13.3 12.5 92 0.7 S 7 9 4 5 1018.3 1018.3 0.0
18/05:00am 13.8 13.7 12.0 89 1.0 SE 4 7 2 4 1018.1 1018.1 0.0
18/04:30am 15.0 15.6 12.0 82 1.6 CALM 0 0 0 0 1018.0 1018.0 0.0
18/04:00am 15.3 15.8 11.7 79 1.9 CALM 0 0 0 0 1017.9 1017.9 0.0
18/03:30am 16.6 15.8 11.7 73 2.7 SE 7 11 4 6 1017.7 1017.7 0.0
18/03:00am 17.2 16.4 11.7 70 3.0 SE 7 9 4 5 1017.7 1017.7 0.0
18/02:30am 17.9 16.7 11.5 66 3.5 SE 9 17 5 9 1017.7 1017.7 0.0
18/02:00am 18.0 16.7 11.3 65 3.6 SE 9 17 5 9 1017.8 1017.8 0.0
18/01:30am 18.2 16.6 11.5 65 3.7 SE 11 17 6 9 1017.8 1017.8 0.0
18/01:00am 18.3 16.7 11.6 65 3.7 SE 11 19 6 10 1018.0 1018.0 0.0
18/12:30am 18.6 16.6 11.4 63 3.9 SE 13 20 7 11 1018.1 1018.1 0.0
18/12:00am 18.5 16.4 11.3 63 3.9 SE 13 24 7 13 1018.1 1018.1 0.0
 
Date/Time
CST
Temp
°C
App
Temp
°C
Dew
Point
°C
Rel
Hum
%
Delta-T
°C
Wind Press
QNH
hPa
Press
MSL
hPa
Rain since
9am
mm
Dir  Spd
km/h
Gust
km/h
Spd
kts
Gust
kts
17/11:30pm 18.8 15.9 11.1 61 4.2 SE 17 28 9 15 1018.1 1018.1 0.0
17/11:00pm 19.1 15.6 10.9 59 4.5 SSE 20 28 11 15 1018.1 1018.1 0.0
17/10:30pm 19.1 15.5 10.6 58 4.6 SSE 20 35 11 19 1018.1 1018.1 0.0
17/10:00pm 19.3 16.0 10.8 58 4.6 SSE 19 32 10 17 1017.9 1017.9 0.0
17/09:30pm 19.6 16.1 10.9 57 4.7 SE 20 39 11 21 1017.8 1017.8 0.0
17/09:00pm 19.7 16.4 10.9 57 4.8 SE 19 33 10 18 1017.7 1017.7 0.0
17/08:30pm 20.1 16.7 11.3 57 4.8 SE 20 33 11 18 1017.4 1017.4 0.0
17/08:00pm 20.4 17.0 11.3 56 5.0 SE 20 35 11 19 1016.9 1016.9 0.0
17/07:30pm 20.8 17.4 11.2 54 5.3 SE 20 35 11 19 1016.5 1016.5 0.0
17/07:00pm 21.4 17.5 10.9 51 5.8 SSE 22 35 12 19 1016.0 1016.0 0.0
17/06:30pm 21.8 18.5 11.5 52 5.7 SSE 20 32 11 17 1015.6 1015.6 0.0
17/06:00pm 22.5 19.2 11.6 50 6.1 SSE 20 32 11 17 1015.0 1015.0 0.0
17/05:30pm 23.1 19.1 11.8 49 6.4 SSE 24 37 13 20 1014.6 1014.5 0.0
17/05:00pm 23.9 20.3 11.9 47 6.8 SE 22 35 12 19 1014.4 1014.3 0.0
17/04:30pm 25.0 21.1 12.2 44 7.3 SSE 24 39 13 21 1014.3 1014.2 0.0
17/04:00pm 25.4 20.4 10.8 40 8.2 SSE 28 44 15 24 1014.3 1014.2 0.0
17/03:49pm 25.4 20.5 11.2 41 8.0 SSE 28 46 15 25 1014.2 1014.1 0.0
17/03:30pm 26.2 23.0 11.9 41 8.2 SSE 20 32 11 17 1014.3 1014.2 0.0
17/03:00pm 25.9 21.0 11.3 40 8.3 SSE 28 43 15 23 1014.2 1014.1 0.0
17/02:30pm 26.2 21.9 11.9 41 8.2 SSE 26 44 14 24 1014.3 1014.2 0.0
17/02:00pm 26.2 22.2 11.9 41 8.2 SE 24 43 13 23 1014.8 1014.7 0.0
17/01:51pm 26.3 21.5 11.6 40 8.4 SSE 28 46 15 25 1014.9 1014.9 0.0
17/01:30pm 26.2 22.5 11.5 40 8.4 SE 22 33 12 18 1015.3 1015.3 0.0
17/01:00pm 26.3 22.2 11.6 40 8.4 SSE 24 41 13 22 1015.9 1015.9 0.0
17/12:30pm 26.0 22.0 11.7 41 8.1 SSE 24 39 13 21 1016.3 1016.3 0.0
17/12:00pm 25.5 21.4 11.3 41 8.0 SSE 24 43 13 23 1016.9 1016.9 0.0
17/11:30am 25.2 20.8 10.3 39 8.3 SE 24 37 13 20 1017.5 1017.5 0.0
17/11:00am 25.2 21.8 11.4 42 7.8 SSE 20 30 11 16 1018.0 1018.0 0.0
17/10:30am 24.5 21.1 12.5 47 6.9 SSE 22 41 12 22 1018.3 1018.3 0.0
17/10:00am 23.4 20.0 12.4 50 6.3 SSE 22 35 12 19 1018.4 1018.4 0.0
17/09:30am 22.7 19.1 12.0 50 6.0 SSE 22 37 12 20 1018.6 1018.6 0.0
17/09:00am 21.4 18.8 12.0 55 5.3 SSE 17 30 9 16 1018.5 1018.5 0.0
17/08:30am 20.2 18.0 13.2 64 4.0 S 17 24 9 13 1018.1 1018.1 0.0
17/08:00am 18.9 17.7 14.0 73 2.8 SSE 13 20 7 11 1017.9 1017.9 0.0
17/07:30am 15.2 14.8 14.2 94 0.6 SSE 9 11 5 6 1017.3 1017.3 0.0
17/07:00am 14.0 13.5 13.8 99 0.1 SSE 9 9 5 5 1016.9 1016.9 0.0
17/06:30am 14.1 13.9 13.6 97 0.3 SSE 7 9 4 5 1016.6 1016.6 0.0
17/06:00am 14.6 14.2 14.1 97 0.3 SSE 9 11 5 6 1016.5 1016.5 0.0
17/05:30am 14.5 14.1 14.2 98 0.2 SSE 9 9 5 5 1016.3 1016.3 0.0
17/05:00am 14.7 14.7 14.1 96 0.3 SSE 7 9 4 5 1016.2 1016.2 0.0
17/04:30am 14.5 14.1 14.2 98 0.2 S 9 9 5 5 1015.9 1015.9 0.0
17/04:00am 14.7 14.7 14.1 96 0.3 SSE 7 7 4 4 1015.6 1015.6 0.0
17/03:30am 15.2 15.5 14.6 96 0.3 SSE 6 7 3 4 1015.5 1015.5 0.0
17/03:00am 15.0 15.1 14.4 96 0.3 SSE 7 9 4 5 1015.6 1015.6 0.0
17/02:30am 15.6 15.9 15.0 96 0.3 SSE 7 7 4 4 1016.0 1016.0 0.0
17/02:00am 15.7 15.9 14.6 93 0.6 SSE 7 9 4 5 1016.1 1016.1 0.0
17/01:30am 16.4 16.7 15.1 92 0.8 SSE 7 9 4 5 1016.4 1016.4 0.0
17/01:00am 17.2 17.6 15.4 89 1.1 SSE 7 9 4 5 1016.6 1016.6 0.0
17/12:30am 18.6 18.9 15.1 80 2.0 SE 7 9 4 5 1016.7 1016.7 0.0
17/12:00am 19.3 19.7 15.2 77 2.4 SE 7 9 4 5 1016.6 1016.6 0.0
 
Date/Time
CST
Temp
°C
App
Temp
°C
Dew
Point
°C
Rel
Hum
%
Delta-T
°C
Wind Press
QNH
hPa
Press
MSL
hPa
Rain since
9am
mm
Dir  Spd
km/h
Gust
km/h
Spd
kts
Gust
kts
16/11:30pm 19.8 19.7 15.0 74 2.8 SE 9 11 5 6 1016.7 1016.7 0.0
16/11:00pm 20.2 20.1 15.0 72 3.1 SE 9 15 5 8 1017.0 1017.0 0.0
16/10:30pm 20.8 20.3 14.9 69 3.5 SE 11 17 6 9 1017.2 1017.2 0.0
16/10:00pm 21.3 20.3 14.7 66 3.9 SE 13 19 7 10 1017.2 1017.2 0.0
16/09:30pm 21.6 20.8 15.0 66 3.9 SE 13 20 7 11 1017.3 1017.3 0.0
16/09:00pm 22.0 20.9 14.4 62 4.4 SE 13 20 7 11 1017.1 1017.1 0.0
16/08:30pm 22.6 20.9 13.7 57 5.2 SSE 15 24 8 13 1016.6 1016.6 0.0
16/08:00pm 22.1 21.0 13.2 57 5.1 SSE 11 19 6 10 1016.3 1016.3 0.0
16/07:30pm 22.9 21.0 11.9 50 6.2 SSE 13 20 7 11 1015.5 1015.5 0.0
16/07:00pm 23.6 21.5 11.0 45 7.0 SSE 13 19 7 10 1015.0 1015.0 0.0
16/06:30pm 24.7 21.9 11.3 43 7.5 SSE 17 26 9 14 1014.5 1014.4 0.0
16/06:00pm 25.1 23.2 13.0 47 7.0 SE 15 22 8 12 1014.0 1013.9 0.0
16/05:30pm 26.3 23.4 12.4 42 8.0 SSE 19 30 10 16 1013.7 1013.6 0.0
16/05:00pm 26.9 23.7 11.8 39 8.7 SSE 20 32 11 17 1013.4 1013.3 0.0
16/04:30pm 27.7 24.2 10.9 35 9.5 SSE 20 30 11 16 1013.1 1013.0 0.0
16/04:00pm 28.0 24.7 11.5 35 9.5 SSE 20 39 11 21 1012.8 1012.7 0.0
16/03:30pm 29.1 26.1 12.5 36 9.7 SSE 20 32 11 17 1012.6 1012.5 0.0
16/03:00pm 28.1 24.9 12.0 36 9.3 SSE 20 33 11 18 1012.8 1012.7 0.0
16/02:30pm 28.1 25.2 12.8 38 9.0 SE 20 35 11 19 1013.0 1012.9 0.0
16/02:00pm 28.1 24.7 12.5 38 9.1 SE 22 35 12 19 1013.4 1013.3 0.0
16/01:30pm 28.1 25.4 12.8 38 9.0 SE 19 35 10 19 1014.0 1013.9 0.0
16/01:00pm 27.5 23.9 13.1 41 8.5 SSE 24 39 13 21 1014.5 1014.4 0.0
16/12:30pm 27.7 25.2 14.0 43 8.2 SE 20 30 11 16 1015.0 1015.0 0.0
16/12:00pm 26.9 24.5 14.3 46 7.5 SSE 20 35 11 19 1015.4 1015.4 0.0
16/11:30am 26.5 24.5 15.5 50 6.7 SSE 20 28 11 15 1015.9 1015.9 0.0
16/11:00am 26.0 24.9 16.3 55 6.0 SE 17 30 9 16 1016.4 1016.4 0.0
16/10:30am 25.6 24.5 17.8 62 4.9 SE 20 32 11 17 1016.5 1016.5 0.0
16/10:00am 24.7 23.1 16.4 60 5.1 SE 20 30 11 16 1016.6 1016.6 0.0
16/09:30am 24.4 24.0 18.1 68 4.0 SSE 17 28 9 15 1016.9 1016.9 0.0
16/09:00am 23.5 23.3 18.4 73 3.2 SSE 17 30 9 16 1016.9 1016.9 0.0
16/08:30am 22.6 23.5 19.2 81 2.2 SSE 13 26 7 14 1016.6 1016.6 0.0
16/08:00am 21.6 22.8 19.0 85 1.6 SE 11 17 6 9 1016.4 1016.4 0.0
16/07:30am 20.5 21.4 18.4 88 1.3 SE 11 17 6 9 1015.8 1015.8 0.0
16/07:00am 19.8 20.7 18.5 92 0.8 SE 11 15 6 8 1015.4 1015.4 0.0
16/06:30am 19.6 20.5 18.4 93 0.7 SE 11 15 6 8 1015.1 1015.1 0.0
16/06:00am 19.7 20.7 18.7 94 0.6 SE 11 15 6 8 1014.6 1014.5 0.0
16/05:30am 19.9 21.0 18.9 94 0.6 SE 11 15 6 8 1014.4 1014.3 0.0
16/05:00am 20.3 21.5 19.1 93 0.8 ESE 11 15 6 8 1014.3 1014.2 0.0
16/04:30am 20.3 21.6 19.3 94 0.6 SE 11 15 6 8 1014.1 1014.0 0.0
16/04:00am 20.3 21.7 19.5 95 0.5 ESE 11 15 6 8 1013.9 1013.8 0.0
16/03:30am 20.4 21.7 19.4 94 0.6 SE 11 13 6 7 1013.8 1013.7 0.0
16/03:00am 20.7 22.1 19.5 93 0.8 SE 11 15 6 8 1013.7 1013.6 0.0
16/02:30am 20.8 22.1 19.3 91 0.9 SE 11 17 6 9 1013.8 1013.7 0.0
16/02:00am 20.9 22.1 19.0 89 1.2 SE 11 15 6 8 1013.9 1013.8 0.0
16/01:30am 21.0 22.1 18.8 87 1.4 ESE 11 17 6 9 1014.0 1013.9 0.0
16/01:00am 21.2 22.0 18.2 83 1.9 ESE 11 15 6 8 1014.2 1014.1 0.0
16/12:30am 21.3 22.0 17.9 81 2.1 ESE 11 15 6 8 1014.3 1014.2 0.0
16/12:00am 21.6 22.3 18.0 80 2.2 ESE 11 15 6 8 1014.2 1014.1 0.0
 
Date/Time
CST
Temp
°C
App
Temp
°C
Dew
Point
°C
Rel
Hum
%
Delta-T
°C
Wind Press
QNH
hPa
Press
MSL
hPa
Rain since
9am
mm
Dir  Spd
km/h
Gust
km/h
Spd
kts
Gust
kts
15/11:30pm 22.0 22.3 18.0 78 2.5 SE 13 20 7 11 1014.3 1014.2 0.0
15/11:00pm 22.1 22.5 18.1 78 2.5 SE 13 20 7 11 1014.3 1014.2 0.0
15/10:30pm 22.1 22.6 18.3 79 2.4 SE 13 17 7 9 1014.3 1014.2 0.0
15/10:00pm 22.4 23.7 18.4 78 2.5 SE 9 15 5 8 1014.3 1014.2 0.0
15/09:30pm 22.7 23.9 18.3 76 2.8 ESE 9 15 5 8 1014.2 1014.1 0.0
15/09:00pm 23.2 24.0 18.1 73 3.2 ESE 11 17 6 9 1013.8 1013.7 0.0
15/08:30pm 23.3 24.3 17.7 71 3.5 ESE 9 13 5 7 1013.4 1013.3 0.0
15/08:00pm 24.2 24.7 17.4 65 4.2 ESE 11 19 6 10 1012.8 1012.7 0.0
15/07:30pm 24.2 25.2 17.7 67 4.1 ESE 9 13 5 7 1012.1 1012.0 0.0
15/07:00pm 24.1 25.2 18.1 69 3.8 E 9 13 5 7 1011.5 1011.4 0.0
15/06:30pm 24.6 25.6 17.8 66 4.3 E 9 13 5 7 1011.0 1010.9 0.0
15/06:00pm 25.4 26.3 17.6 62 4.9 E 9 15 5 8 1010.6 1010.5 0.0
15/05:30pm 26.1 26.7 17.7 60 5.3 E 11 17 6 9 1010.3 1010.2 0.0
15/05:00pm 26.7 27.3 17.8 58 5.6 E 11 19 6 10 1010.0 1009.9 0.0
15/04:30pm 27.2 27.8 17.7 56 6.0 E 11 22 6 12 1009.9 1009.8 0.0
15/04:00pm 27.6 27.4 17.7 54 6.3 E 15 22 8 12 1009.9 1009.8 0.0
15/03:30pm 27.9 27.9 18.0 55 6.3 E 15 24 8 13 1009.9 1009.8 0.0
15/03:00pm 28.1 28.0 17.9 54 6.5 E 15 24 8 13 1010.0 1009.9 0.0
15/02:30pm 27.9 28.0 17.4 52 6.6 ESE 13 20 7 11 1010.3 1010.2 0.0
15/02:00pm 28.1 27.3 17.0 51 6.9 ESE 17 26 9 14 1010.6 1010.5 0.0
15/01:30pm 28.2 27.8 16.1 47 7.5 ESE 13 20 7 11 1011.3 1011.2 0.0

Other formats

Comma delimited format used in spreadsheet applications
http://www.bom.gov.au/fwo/IDD60801/IDD60801.95146.axf

JavaScript Object Notation format (JSON) in row-major order
http://www.bom.gov.au/fwo/IDD60801/IDD60801.95146.json

Data quality

Most of these data are generated automatically and are frequently updated. Quality checks on data are not normally performed. It is possible for incorrect values to appear. Refer to information at About Latest Weather Observations and please check the disclaimer before using these data.